sensor_id;sensor_type;location;lat;lon;timestamp;pressure;altitude;pressure_sealevel;temperature;humidity
73692;BME280;61996;49.910;35.562;2022-07-12T00:00:37;98785.50;;;20.98;65.31
73692;BME280;61996;49.910;35.562;2022-07-12T00:03:40;98784.50;;;20.99;65.56
73692;BME280;61996;49.910;35.562;2022-07-12T00:06:44;98793.22;;;20.93;65.96
73692;BME280;61996;49.910;35.562;2022-07-12T00:09:47;98803.75;;;20.95;64.85
73692;BME280;61996;49.910;35.562;2022-07-12T00:12:50;98801.06;;;20.95;65.24
73692;BME280;61996;49.910;35.562;2022-07-12T00:15:53;98797.41;;;20.88;64.62
73692;BME280;61996;49.910;35.562;2022-07-12T00:18:56;98801.91;;;20.95;64.54
73692;BME280;61996;49.910;35.562;2022-07-12T00:22:00;98802.47;;;20.74;64.56
73692;BME280;61996;49.910;35.562;2022-07-12T00:25:04;98807.53;;;21.08;64.34
73692;BME280;61996;49.910;35.562;2022-07-12T00:28:07;98810.41;;;20.99;64.51
73692;BME280;61996;49.910;35.562;2022-07-12T00:31:10;98815.22;;;21.03;63.80
73692;BME280;61996;49.910;35.562;2022-07-12T00:34:13;98815.28;;;20.87;64.41
73692;BME280;61996;49.910;35.562;2022-07-12T00:37:17;98814.91;;;20.98;64.31
73692;BME280;61996;49.910;35.562;2022-07-12T00:40:20;98813.22;;;21.05;63.07
73692;BME280;61996;49.910;35.562;2022-07-12T00:43:23;98817.00;;;20.80;64.55
73692;BME280;61996;49.910;35.562;2022-07-12T00:46:29;98818.13;;;20.94;64.24
73692;BME280;61996;49.910;35.562;2022-07-12T00:49:33;98825.38;;;20.61;65.22
73692;BME280;61996;49.910;35.562;2022-07-12T00:52:39;98828.84;;;20.69;65.25
73692;BME280;61996;49.910;35.562;2022-07-12T00:55:46;98829.84;;;20.76;64.93
73692;BME280;61996;49.910;35.562;2022-07-12T00:58:48;98833.38;;;20.69;65.05
73692;BME280;61996;49.910;35.562;2022-07-12T01:01:51;98836.22;;;20.59;64.89
73692;BME280;61996;49.910;35.562;2022-07-12T01:04:54;98835.81;;;20.95;64.04
73692;BME280;61996;49.910;35.562;2022-07-12T01:07:58;98847.88;;;20.74;64.54
73692;BME280;61996;49.910;35.562;2022-07-12T01:11:02;98853.03;;;20.84;64.13
73692;BME280;61996;49.910;35.562;2022-07-12T01:14:05;98845.22;;;20.74;64.62
73692;BME280;61996;49.910;35.562;2022-07-12T01:17:08;98846.69;;;20.77;63.87
73692;BME280;61996;49.910;35.562;2022-07-12T01:20:11;98854.59;;;20.62;64.43
73692;BME280;61996;49.910;35.562;2022-07-12T01:23:16;98847.53;;;20.94;64.50
73692;BME280;61996;49.910;35.562;2022-07-12T01:26:19;98850.75;;;20.57;64.82
73692;BME280;61996;49.910;35.562;2022-07-12T01:29:22;98853.75;;;20.62;64.87
73692;BME280;61996;49.910;35.562;2022-07-12T01:32:24;98863.59;;;20.61;64.29
73692;BME280;61996;49.910;35.562;2022-07-12T01:35:28;98862.91;;;20.75;64.37
73692;BME280;61996;49.910;35.562;2022-07-12T01:38:32;98874.59;;;20.58;64.26
73692;BME280;61996;49.910;35.562;2022-07-12T01:41:35;98879.28;;;20.64;64.54
73692;BME280;61996;49.910;35.562;2022-07-12T01:44:38;98880.75;;;20.83;63.57
73692;BME280;61996;49.910;35.562;2022-07-12T01:47:41;98880.44;;;20.94;63.20
73692;BME280;61996;49.910;35.562;2022-07-12T01:50:43;98886.28;;;20.82;64.07
73692;BME280;61996;49.910;35.562;2022-07-12T01:53:48;98890.28;;;20.77;64.14
73692;BME280;61996;49.910;35.562;2022-07-12T01:56:51;98889.63;;;20.51;65.29
73692;BME280;61996;49.910;35.562;2022-07-12T01:59:54;98896.31;;;20.88;63.51
73692;BME280;61996;49.910;35.562;2022-07-12T02:02:57;98889.63;;;20.75;63.99
73692;BME280;61996;49.910;35.562;2022-07-12T02:06:00;98897.31;;;20.87;63.88
73692;BME280;61996;49.910;35.562;2022-07-12T02:09:05;98909.13;;;20.92;63.33
73692;BME280;61996;49.910;35.562;2022-07-12T02:12:08;98917.00;;;20.86;63.44
73692;BME280;61996;49.910;35.562;2022-07-12T02:15:11;98919.50;;;20.95;62.60
73692;BME280;61996;49.910;35.562;2022-07-12T02:18:14;98917.16;;;21.00;62.18
73692;BME280;61996;49.910;35.562;2022-07-12T02:21:17;98921.84;;;20.82;63.44
73692;BME280;61996;49.910;35.562;2022-07-12T02:24:21;98923.88;;;20.88;63.32
73692;BME280;61996;49.910;35.562;2022-07-12T02:27:24;98920.34;;;20.71;64.01
73692;BME280;61996;49.910;35.562;2022-07-12T02:30:26;98927.53;;;20.79;63.67
73692;BME280;61996;49.910;35.562;2022-07-12T02:33:29;98932.75;;;20.72;64.97
73692;BME280;61996;49.910;35.562;2022-07-12T02:36:32;98934.41;;;20.73;63.76
73692;BME280;61996;49.910;35.562;2022-07-12T02:39:36;98943.91;;;20.68;64.27
73692;BME280;61996;49.910;35.562;2022-07-12T02:42:39;98941.06;;;20.86;63.50
73692;BME280;61996;49.910;35.562;2022-07-12T02:45:42;98947.56;;;20.83;62.93
73692;BME280;61996;49.910;35.562;2022-07-12T02:48:45;98954.44;;;20.69;63.36
73692;BME280;61996;49.910;35.562;2022-07-12T02:51:48;98951.25;;;20.82;63.30
73692;BME280;61996;49.910;35.562;2022-07-12T02:54:52;98956.25;;;20.77;63.06
73692;BME280;61996;49.910;35.562;2022-07-12T02:57:55;98962.94;;;20.65;64.10
73692;BME280;61996;49.910;35.562;2022-07-12T03:00:58;98966.78;;;20.78;63.21
73692;BME280;61996;49.910;35.562;2022-07-12T03:04:00;98975.78;;;20.86;62.57
73692;BME280;61996;49.910;35.562;2022-07-12T03:07:04;98977.63;;;20.85;62.92
73692;BME280;61996;49.910;35.562;2022-07-12T03:10:09;98984.50;;;20.79;62.70
73692;BME280;61996;49.910;35.562;2022-07-12T03:13:12;98988.84;;;20.80;62.70
73692;BME280;61996;49.910;35.562;2022-07-12T03:16:15;98985.81;;;20.92;62.51
73692;BME280;61996;49.910;35.562;2022-07-12T03:19:18;98988.00;;;20.88;62.90
73692;BME280;61996;49.910;35.562;2022-07-12T03:22:21;98993.50;;;20.78;63.30
73692;BME280;61996;49.910;35.562;2022-07-12T03:25:25;99000.03;;;20.60;63.24
73692;BME280;61996;49.910;35.562;2022-07-12T03:28:27;98996.03;;;20.88;62.98
73692;BME280;61996;49.910;35.562;2022-07-12T03:31:30;98999.53;;;20.72;63.57
73692;BME280;61996;49.910;35.562;2022-07-12T03:34:33;98990.00;;;20.78;63.65
73692;BME280;61996;49.910;35.562;2022-07-12T03:37:42;98996.50;;;20.84;62.44
73692;BME280;61996;49.910;35.562;2022-07-12T03:40:46;99001.19;;;20.98;62.14
73692;BME280;61996;49.910;35.562;2022-07-12T03:43:50;99000.53;;;20.96;62.33
73692;BME280;61996;49.910;35.562;2022-07-12T03:46:52;99007.19;;;21.00;62.52
73692;BME280;61996;49.910;35.562;2022-07-12T03:49:55;99003.19;;;21.04;62.23
73692;BME280;61996;49.910;35.562;2022-07-12T03:52:58;99006.34;;;20.99;62.37
73692;BME280;61996;49.910;35.562;2022-07-12T03:56:02;99010.19;;;21.05;61.87
73692;BME280;61996;49.910;35.562;2022-07-12T03:59:05;99012.38;;;20.61;63.13
73692;BME280;61996;49.910;35.562;2022-07-12T04:02:08;99014.38;;;20.75;62.61
73692;BME280;61996;49.910;35.562;2022-07-12T04:05:18;99021.06;;;20.95;62.12
73692;BME280;61996;49.910;35.562;2022-07-12T04:08:21;99028.06;;;21.13;61.18
73692;BME280;61996;49.910;35.562;2022-07-12T04:11:26;99034.41;;;21.20;61.05
73692;BME280;61996;49.910;35.562;2022-07-12T04:14:28;99031.09;;;20.85;62.21
73692;BME280;61996;49.910;35.562;2022-07-12T04:17:31;99022.91;;;21.03;62.00
73692;BME280;61996;49.910;35.562;2022-07-12T04:20:34;99019.88;;;21.06;61.76
73692;BME280;61996;49.910;35.562;2022-07-12T04:23:37;99027.91;;;21.06;61.35
73692;BME280;61996;49.910;35.562;2022-07-12T04:26:41;99028.91;;;21.13;61.16
73692;BME280;61996;49.910;35.562;2022-07-12T04:29:44;99023.56;;;21.13;61.18
73692;BME280;61996;49.910;35.562;2022-07-12T04:32:47;99036.25;;;21.19;60.85
73692;BME280;61996;49.910;35.562;2022-07-12T04:35:50;99033.75;;;21.26;61.14
73692;BME280;61996;49.910;35.562;2022-07-12T04:38:52;99040.78;;;21.11;60.94
73692;BME280;61996;49.910;35.562;2022-07-12T04:41:57;99043.63;;;21.17;61.27
73692;BME280;61996;49.910;35.562;2022-07-12T04:45:00;99049.97;;;21.16;61.60
73692;BME280;61996;49.910;35.562;2022-07-12T04:48:02;99048.97;;;21.25;61.39
73692;BME280;61996;49.910;35.562;2022-07-12T04:51:05;99060.31;;;21.19;60.86
73692;BME280;61996;49.910;35.562;2022-07-12T04:54:08;99056.34;;;21.40;60.57
73692;BME280;61996;49.910;35.562;2022-07-12T04:57:12;99064.19;;;21.25;60.95
73692;BME280;61996;49.910;35.562;2022-07-12T05:00:15;99070.72;;;21.39;60.34
73692;BME280;61996;49.910;35.562;2022-07-12T05:03:19;99068.53;;;21.26;61.02
73692;BME280;61996;49.910;35.562;2022-07-12T05:06:22;99076.75;;;21.32;60.97
73692;BME280;61996;49.910;35.562;2022-07-12T05:09:25;99077.41;;;21.34;60.93
73692;BME280;61996;49.910;35.562;2022-07-12T05:12:29;99088.06;;;21.26;60.80
73692;BME280;61996;49.910;35.562;2022-07-12T05:15:32;99081.06;;;21.42;60.76
73692;BME280;61996;49.910;35.562;2022-07-12T05:18:35;99088.94;;;21.43;60.39
73692;BME280;61996;49.910;35.562;2022-07-12T05:21:38;99083.09;;;21.31;60.09
73692;BME280;61996;49.910;35.562;2022-07-12T05:24:43;99090.09;;;21.32;60.66
73692;BME280;61996;49.910;35.562;2022-07-12T05:27:47;99103.66;;;21.39;60.65
73692;BME280;61996;49.910;35.562;2022-07-12T05:30:50;99095.81;;;21.29;60.27
73692;BME280;61996;49.910;35.562;2022-07-12T05:33:53;99098.97;;;21.33;59.69
73692;BME280;61996;49.910;35.562;2022-07-12T05:36:56;99105.47;;;21.22;60.43
73692;BME280;61996;49.910;35.562;2022-07-12T05:39:58;99112.69;;;21.38;60.04
73692;BME280;61996;49.910;35.562;2022-07-12T05:43:03;99107.34;;;21.38;60.07
73692;BME280;61996;49.910;35.562;2022-07-12T05:46:05;99110.50;;;21.33;60.08
73692;BME280;61996;49.910;35.562;2022-07-12T05:49:10;99105.25;;;21.81;59.05
73692;BME280;61996;49.910;35.562;2022-07-12T05:52:12;99118.22;;;21.37;58.76
73692;BME280;61996;49.910;35.562;2022-07-12T05:55:32;99125.03;;;21.47;59.36
73692;BME280;61996;49.910;35.562;2022-07-12T05:58:37;99123.72;;;21.51;59.49
73692;BME280;61996;49.910;35.562;2022-07-12T06:01:41;99120.88;;;21.53;59.04
73692;BME280;61996;49.910;35.562;2022-07-12T06:04:44;99128.88;;;21.61;58.61
73692;BME280;61996;49.910;35.562;2022-07-12T06:07:51;99116.97;;;21.80;58.36
73692;BME280;61996;49.910;35.562;2022-07-12T06:10:54;99118.00;;;21.62;58.41
73692;BME280;61996;49.910;35.562;2022-07-12T06:13:58;99118.19;;;21.61;58.04
73692;BME280;61996;49.910;35.562;2022-07-12T06:17:01;99117.19;;;21.70;58.73
73692;BME280;61996;49.910;35.562;2022-07-12T06:20:04;99127.88;;;21.78;58.39
73692;BME280;61996;49.910;35.562;2022-07-12T06:23:08;99124.84;;;21.73;57.88
73692;BME280;61996;49.910;35.562;2022-07-12T06:26:10;99126.69;;;21.73;58.04
73692;BME280;61996;49.910;35.562;2022-07-12T06:29:14;99126.69;;;21.73;58.50
73692;BME280;61996;49.910;35.562;2022-07-12T06:32:17;99135.22;;;21.68;58.40
73692;BME280;61996;49.910;35.562;2022-07-12T06:35:20;99128.88;;;21.61;58.18
73692;BME280;61996;49.910;35.562;2022-07-12T06:38:23;99129.88;;;21.68;57.39
73692;BME280;61996;49.910;35.562;2022-07-12T06:41:26;99136.22;;;21.75;56.97
73692;BME280;61996;49.910;35.562;2022-07-12T06:44:32;99137.22;;;21.82;57.93
73692;BME280;61996;49.910;35.562;2022-07-12T06:47:35;99137.38;;;21.81;56.88
73692;BME280;61996;49.910;35.562;2022-07-12T06:50:38;99157.16;;;21.72;57.22
73692;BME280;61996;49.910;35.562;2022-07-12T06:53:41;99138.69;;;22.01;56.78
73692;BME280;61996;49.910;35.562;2022-07-12T06:56:43;99148.00;;;22.30;56.12
73692;BME280;61996;49.910;35.562;2022-07-12T06:59:48;99152.75;;;22.20;56.62
73692;BME280;61996;49.910;35.562;2022-07-12T07:02:51;99151.50;;;22.30;56.41
73692;BME280;61996;49.910;35.562;2022-07-12T07:05:54;99159.09;;;22.10;56.90
73692;BME280;61996;49.910;35.562;2022-07-12T07:08:57;99152.59;;;22.05;55.98
73692;BME280;61996;49.910;35.562;2022-07-12T07:12:00;99159.63;;;21.98;56.08
73692;BME280;61996;49.910;35.562;2022-07-12T07:15:05;99153.53;;;22.28;56.14
73692;BME280;61996;49.910;35.562;2022-07-12T07:18:07;99162.72;;;22.34;55.53
73692;BME280;61996;49.910;35.562;2022-07-12T07:21:10;99170.22;;;22.38;55.71
73692;BME280;61996;49.910;35.562;2022-07-12T07:24:13;99161.97;;;22.56;54.64
73692;BME280;61996;49.910;35.562;2022-07-12T07:27:16;99165.09;;;22.29;54.66
73692;BME280;61996;49.910;35.562;2022-07-12T07:30:20;99170.38;;;22.53;54.73
73692;BME280;61996;49.910;35.562;2022-07-12T07:33:41;99158.19;;;22.42;54.39
73692;BME280;61996;49.910;35.562;2022-07-12T07:36:43;99171.91;;;22.48;54.04
73692;BME280;61996;49.910;35.562;2022-07-12T07:39:46;99167.44;;;22.71;53.94
73692;BME280;61996;49.910;35.562;2022-07-12T07:42:49;99165.81;;;22.62;53.24
73692;BME280;61996;49.910;35.562;2022-07-12T07:45:54;99180.28;;;22.84;54.54
73692;BME280;61996;49.910;35.562;2022-07-12T07:48:58;99175.59;;;22.47;53.48
73692;BME280;61996;49.910;35.562;2022-07-12T07:52:00;99170.75;;;22.73;53.84
73692;BME280;61996;49.910;35.562;2022-07-12T07:55:04;99174.88;;;22.53;53.79
73692;BME280;61996;49.910;35.562;2022-07-12T07:58:06;99170.19;;;22.55;53.83
73692;BME280;61996;49.910;35.562;2022-07-12T08:01:11;99167.78;;;22.68;53.71
73692;BME280;61996;49.910;35.562;2022-07-12T08:04:14;99164.19;;;22.84;53.96
73692;BME280;61996;49.910;35.562;2022-07-12T08:07:18;99167.09;;;22.66;53.90
73692;BME280;61996;49.910;35.562;2022-07-12T08:10:41;99167.59;;;22.69;53.28
73692;BME280;61996;49.910;35.562;2022-07-12T08:13:43;99169.72;;;22.90;53.41
73692;BME280;61996;49.910;35.562;2022-07-12T08:16:48;99179.47;;;22.75;52.94
73692;BME280;61996;49.910;35.562;2022-07-12T08:19:50;99177.50;;;22.69;53.33
73692;BME280;61996;49.910;35.562;2022-07-12T08:22:53;99184.47;;;22.78;55.06
73692;BME280;61996;49.910;35.562;2022-07-12T08:25:56;99181.63;;;22.88;54.85
73692;BME280;61996;49.910;35.562;2022-07-12T08:28:59;99192.66;;;22.93;53.96
73692;BME280;61996;49.910;35.562;2022-07-12T08:32:04;99190.16;;;22.91;53.49
73692;BME280;61996;49.910;35.562;2022-07-12T08:35:09;99187.34;;;23.16;53.68
73692;BME280;61996;49.910;35.562;2022-07-12T08:38:12;99194.59;;;21.39;59.68
73692;BME280;61996;49.910;35.562;2022-07-12T08:41:16;99187.72;;;22.02;56.75
73692;BME280;61996;49.910;35.562;2022-07-12T08:44:19;99205.09;;;20.66;56.53
73692;BME280;61996;49.910;35.562;2022-07-12T08:47:23;99213.81;;;21.83;55.17
73692;BME280;61996;49.910;35.562;2022-07-12T08:50:27;99209.97;;;21.45;54.74
73692;BME280;61996;49.910;35.562;2022-07-12T08:53:30;99219.84;;;21.28;55.16
73692;BME280;61996;49.910;35.562;2022-07-12T08:56:33;99219.34;;;21.90;55.37
73692;BME280;61996;49.910;35.562;2022-07-12T08:59:36;99216.50;;;21.83;54.24
73692;BME280;61996;49.910;35.562;2022-07-12T09:02:47;99217.69;;;22.22;54.35
73692;BME280;61996;49.910;35.562;2022-07-12T09:05:53;99231.44;;;20.61;56.48
73692;BME280;61996;49.910;35.562;2022-07-12T09:08:56;99227.00;;;20.77;54.80
73692;BME280;61996;49.910;35.562;2022-07-12T09:11:59;99224.19;;;21.62;52.31
73692;BME280;61996;49.910;35.562;2022-07-12T09:15:12;99228.41;;;21.73;54.86
73692;BME280;61996;49.910;35.562;2022-07-12T09:18:16;99226.91;;;21.70;55.81
73692;BME280;61996;49.910;35.562;2022-07-12T09:21:23;99233.13;;;22.67;52.55
73692;BME280;61996;49.910;35.562;2022-07-12T09:24:26;99228.38;;;21.40;53.63
73692;BME280;61996;49.910;35.562;2022-07-12T09:27:29;99240.13;;;21.05;55.34
73692;BME280;61996;49.910;35.562;2022-07-12T09:30:32;99237.09;;;22.15;50.54
73692;BME280;61996;49.910;35.562;2022-07-12T09:33:37;99241.59;;;23.49;49.28
73692;BME280;61996;49.910;35.562;2022-07-12T09:36:57;99231.16;;;24.00;45.29
73692;BME280;61996;49.910;35.562;2022-07-12T09:40:00;99241.13;;;21.12;53.36
73692;BME280;61996;49.910;35.562;2022-07-12T09:43:03;99245.44;;;25.33;41.59
73692;BME280;61996;49.910;35.562;2022-07-12T09:46:06;99251.97;;;27.55;37.48
73692;BME280;61996;49.910;35.562;2022-07-12T09:49:14;99241.09;;;22.03;51.76
73692;BME280;61996;49.910;35.562;2022-07-12T09:52:25;99253.06;;;27.06;38.50
73692;BME280;61996;49.910;35.562;2022-07-12T09:55:29;99251.22;;;22.65;47.94
73692;BME280;61996;49.910;35.562;2022-07-12T09:58:34;99245.97;;;21.67;51.53
73692;BME280;61996;49.910;35.562;2022-07-12T10:01:38;99257.03;;;22.21;49.67
73692;BME280;61996;49.910;35.562;2022-07-12T10:04:43;99256.38;;;26.39;39.82
73692;BME280;61996;49.910;35.562;2022-07-12T10:07:48;99246.63;;;28.34;36.94
73692;BME280;61996;49.910;35.562;2022-07-12T10:10:51;99252.56;;;31.09;31.75
73692;BME280;61996;49.910;35.562;2022-07-12T10:13:54;99254.97;;;29.17;35.64
73692;BME280;61996;49.910;35.562;2022-07-12T10:17:03;99243.50;;;27.84;36.29
73692;BME280;61996;49.910;35.562;2022-07-12T10:20:16;99255.81;;;31.18;31.28
73692;BME280;61996;49.910;35.562;2022-07-12T10:26:46;99256.84;;;29.17;34.99
73692;BME280;61996;49.910;35.562;2022-07-12T10:29:49;99259.03;;;29.33;34.08
73692;BME280;61996;49.910;35.562;2022-07-12T10:32:56;99256.50;;;30.33;32.78
73692;BME280;61996;49.910;35.562;2022-07-12T10:36:03;99255.69;;;28.86;33.61
73692;BME280;61996;49.910;35.562;2022-07-12T10:39:15;99248.91;;;30.42;32.15
73692;BME280;61996;49.910;35.562;2022-07-12T10:42:24;99250.19;;;30.57;32.46
73692;BME280;61996;49.910;35.562;2022-07-12T10:45:29;99257.00;;;27.78;36.89
73692;BME280;61996;49.910;35.562;2022-07-12T10:48:33;99263.69;;;30.64;32.58
73692;BME280;61996;49.910;35.562;2022-07-12T10:51:37;99246.31;;;25.98;41.10
73692;BME280;61996;49.910;35.562;2022-07-12T10:54:40;99257.78;;;28.71;35.06
73692;BME280;61996;49.910;35.562;2022-07-12T10:57:44;99253.44;;;27.64;36.98
73692;BME280;61996;49.910;35.562;2022-07-12T11:00:48;99251.50;;;30.30;33.63
73692;BME280;61996;49.910;35.562;2022-07-12T11:03:53;99255.66;;;25.23;42.86
73692;BME280;61996;49.910;35.562;2022-07-12T11:07:00;99250.38;;;25.87;40.93
73692;BME280;61996;49.910;35.562;2022-07-12T11:10:06;99245.50;;;24.74;43.15
73692;BME280;61996;49.910;35.562;2022-07-12T11:13:19;99238.16;;;25.91;41.59
73692;BME280;61996;49.910;35.562;2022-07-12T11:16:26;99242.00;;;24.74;44.05
73692;BME280;61996;49.910;35.562;2022-07-12T11:19:30;99245.75;;;27.00;38.55
73692;BME280;61996;49.910;35.562;2022-07-12T11:22:34;99246.44;;;24.52;42.32
73692;BME280;61996;49.910;35.562;2022-07-12T11:25:38;99249.66;;;23.95;43.44
73692;BME280;61996;49.910;35.562;2022-07-12T11:28:43;99259.22;;;23.97;42.14
73692;BME280;61996;49.910;35.562;2022-07-12T11:31:46;99255.06;;;24.47;41.58
73692;BME280;61996;49.910;35.562;2022-07-12T11:34:52;99255.06;;;25.42;38.89
73692;BME280;61996;49.910;35.562;2022-07-12T11:37:57;99249.13;;;23.99;43.74
73692;BME280;61996;49.910;35.562;2022-07-12T11:41:00;99248.75;;;23.34;45.23
73692;BME280;61996;49.910;35.562;2022-07-12T11:44:03;99253.28;;;25.13;42.23
73692;BME280;61996;49.910;35.562;2022-07-12T11:47:06;99245.72;;;24.43;38.92
73692;BME280;61996;49.910;35.562;2022-07-12T11:50:09;99250.06;;;25.39;38.78
73692;BME280;61996;49.910;35.562;2022-07-12T11:53:16;99257.59;;;26.36;38.23
73692;BME280;61996;49.910;35.562;2022-07-12T11:56:28;99255.69;;;26.58;36.82
73692;BME280;61996;49.910;35.562;2022-07-12T11:59:31;99254.09;;;27.73;34.67
73692;BME280;61996;49.910;35.562;2022-07-12T12:02:34;99242.69;;;27.84;34.86
73692;BME280;61996;49.910;35.562;2022-07-12T12:05:37;99249.16;;;25.90;38.76
73692;BME280;61996;49.910;35.562;2022-07-12T12:08:41;99249.34;;;31.49;30.05
73692;BME280;61996;49.910;35.562;2022-07-12T12:11:46;99261.97;;;27.74;32.71
73692;BME280;61996;49.910;35.562;2022-07-12T12:14:49;99261.00;;;24.20;39.40
73692;BME280;61996;49.910;35.562;2022-07-12T12:17:55;99254.06;;;23.42;43.45
73692;BME280;61996;49.910;35.562;2022-07-12T12:20:59;99255.97;;;23.33;42.65
73692;BME280;61996;49.910;35.562;2022-07-12T12:24:09;99256.94;;;26.34;38.68
73692;BME280;61996;49.910;35.562;2022-07-12T12:27:22;99247.88;;;28.12;36.14
73692;BME280;61996;49.910;35.562;2022-07-12T12:30:25;99250.25;;;29.76;32.21
73692;BME280;61996;49.910;35.562;2022-07-12T12:33:34;99254.81;;;26.86;35.17
73692;BME280;61996;49.910;35.562;2022-07-12T12:36:38;99248.81;;;28.84;29.75
73692;BME280;61996;49.910;35.562;2022-07-12T12:39:47;99267.06;;;29.15;31.06
73692;BME280;61996;49.910;35.562;2022-07-12T12:42:51;99241.19;;;28.61;33.53
73692;BME280;61996;49.910;35.562;2022-07-12T12:45:55;99268.16;;;31.50;26.62
73692;BME280;61996;49.910;35.562;2022-07-12T12:48:59;99256.63;;;31.00;29.10
73692;BME280;61996;49.910;35.562;2022-07-12T12:52:02;99262.25;;;29.17;31.32
73692;BME280;61996;49.910;35.562;2022-07-12T12:55:07;99270.50;;;33.58;25.45
73692;BME280;61996;49.910;35.562;2022-07-12T12:58:10;99265.75;;;28.26;34.58
73692;BME280;61996;49.910;35.562;2022-07-12T13:01:13;99263.19;;;25.28;36.78
73692;BME280;61996;49.910;35.562;2022-07-12T13:04:17;99263.50;;;26.46;38.23
73692;BME280;61996;49.910;35.562;2022-07-12T13:07:19;99265.28;;;30.53;28.22
73692;BME280;61996;49.910;35.562;2022-07-12T13:10:24;99262.66;;;25.54;36.41
73692;BME280;61996;49.910;35.562;2022-07-12T13:13:27;99261.59;;;24.30;40.14
73692;BME280;61996;49.910;35.562;2022-07-12T13:16:29;99265.00;;;24.09;40.56
73692;BME280;61996;49.910;35.562;2022-07-12T13:19:32;99259.53;;;28.06;34.33
73692;BME280;61996;49.910;35.562;2022-07-12T13:22:35;99268.09;;;29.90;31.90
73692;BME280;61996;49.910;35.562;2022-07-12T13:25:40;99257.09;;;24.45;39.04
73692;BME280;61996;49.910;35.562;2022-07-12T13:28:43;99264.31;;;23.69;42.08
73692;BME280;61996;49.910;35.562;2022-07-12T13:31:48;99257.22;;;27.09;36.64
73692;BME280;61996;49.910;35.562;2022-07-12T13:34:57;99262.69;;;27.28;35.46
73692;BME280;61996;49.910;35.562;2022-07-12T13:38:01;99256.22;;;27.97;33.31
73692;BME280;61996;49.910;35.562;2022-07-12T13:41:06;99257.00;;;30.23;31.08
73692;BME280;61996;49.910;35.562;2022-07-12T13:44:10;99265.97;;;33.63;26.02
73692;BME280;61996;49.910;35.562;2022-07-12T13:47:22;99260.34;;;28.59;30.73
73692;BME280;61996;49.910;35.562;2022-07-12T13:50:27;99271.78;;;28.08;30.12
73692;BME280;61996;49.910;35.562;2022-07-12T13:53:33;99268.91;;;31.21;26.70
73692;BME280;61996;49.910;35.562;2022-07-12T13:56:39;99261.63;;;28.04;32.44
73692;BME280;61996;49.910;35.562;2022-07-12T13:59:42;99263.97;;;31.48;27.01
73692;BME280;61996;49.910;35.562;2022-07-12T14:02:45;99260.84;;;32.04;27.23
73692;BME280;61996;49.910;35.562;2022-07-12T14:05:55;99269.75;;;31.21;26.96
73692;BME280;61996;49.910;35.562;2022-07-12T14:08:58;99258.59;;;31.11;28.29
73692;BME280;61996;49.910;35.562;2022-07-12T14:12:03;99263.88;;;27.87;32.59
73692;BME280;61996;49.910;35.562;2022-07-12T14:15:07;99265.53;;;31.55;28.63
73692;BME280;61996;49.910;35.562;2022-07-12T14:18:39;99264.25;;;31.09;29.49
73692;BME280;61996;49.910;35.562;2022-07-12T14:21:43;99254.19;;;29.80;31.43
73692;BME280;61996;49.910;35.562;2022-07-12T14:24:45;99253.88;;;30.45;30.45
73692;BME280;61996;49.910;35.562;2022-07-12T14:27:52;99259.41;;;30.32;29.05
73692;BME280;61996;49.910;35.562;2022-07-12T14:30:55;99257.97;;;30.54;28.90
73692;BME280;61996;49.910;35.562;2022-07-12T14:33:59;99261.47;;;29.86;29.40
73692;BME280;61996;49.910;35.562;2022-07-12T14:37:01;99260.22;;;30.82;29.48
73692;BME280;61996;49.910;35.562;2022-07-12T14:40:05;99261.88;;;29.07;30.44
73692;BME280;61996;49.910;35.562;2022-07-12T14:43:09;99261.22;;;29.63;29.88
73692;BME280;61996;49.910;35.562;2022-07-12T14:46:13;99257.50;;;30.14;29.81
73692;BME280;61996;49.910;35.562;2022-07-12T14:49:16;99253.44;;;28.63;32.80
73692;BME280;61996;49.910;35.562;2022-07-12T14:52:20;99261.72;;;30.03;31.14
73692;BME280;61996;49.910;35.562;2022-07-12T14:55:22;99266.09;;;28.83;30.62
73692;BME280;61996;49.910;35.562;2022-07-12T14:58:27;99265.38;;;26.81;34.72
73692;BME280;61996;49.910;35.562;2022-07-12T15:01:32;99262.91;;;26.86;34.96
73692;BME280;61996;49.910;35.562;2022-07-12T15:04:35;99258.59;;;25.43;35.41
73692;BME280;61996;49.910;35.562;2022-07-12T15:07:40;99259.66;;;25.85;35.88
73692;BME280;61996;49.910;35.562;2022-07-12T15:10:43;99263.34;;;23.31;38.43
73692;BME280;61996;49.910;35.562;2022-07-12T15:13:48;99257.00;;;23.78;40.64
73692;BME280;61996;49.910;35.562;2022-07-12T15:16:51;99258.94;;;24.89;37.94
73692;BME280;61996;49.910;35.562;2022-07-12T15:19:53;99262.31;;;24.76;40.35
73692;BME280;61996;49.910;35.562;2022-07-12T15:23:02;99260.25;;;24.93;39.19
73692;BME280;61996;49.910;35.562;2022-07-12T15:26:08;99257.28;;;24.88;39.41
73692;BME280;61996;49.910;35.562;2022-07-12T15:29:14;99254.69;;;25.09;40.06
73692;BME280;61996;49.910;35.562;2022-07-12T15:32:17;99261.38;;;25.13;37.44
73692;BME280;61996;49.910;35.562;2022-07-12T15:35:20;99256.75;;;24.78;40.76
73692;BME280;61996;49.910;35.562;2022-07-12T15:38:23;99257.41;;;24.65;38.95
73692;BME280;61996;49.910;35.562;2022-07-12T15:41:26;99262.97;;;24.78;40.20
73692;BME280;61996;49.910;35.562;2022-07-12T15:44:30;99261.38;;;25.13;38.76
73692;BME280;61996;49.910;35.562;2022-07-12T15:47:33;99256.25;;;24.89;40.33
73692;BME280;61996;49.910;35.562;2022-07-12T15:50:37;99256.88;;;24.32;42.13
73692;BME280;61996;49.910;35.562;2022-07-12T15:53:41;99254.50;;;24.67;40.81
73692;BME280;61996;49.910;35.562;2022-07-12T15:56:44;99264.63;;;24.79;40.59
73692;BME280;61996;49.910;35.562;2022-07-12T15:59:56;99252.75;;;24.59;40.34
73692;BME280;61996;49.910;35.562;2022-07-12T16:02:59;99252.66;;;24.52;40.71
73692;BME280;61996;49.910;35.562;2022-07-12T16:06:03;99250.03;;;23.69;42.22